Time;durP1;ratioP1;P1;durP2;ratioP2;P2;SDS_P1;SDS_P2;PMS_P1;PMS_P2;Temp;Humidity;BMP_temperature;BMP_pressure;BME280_temperature;BME280_humidity;BME280_pressure;Samples;Min_cycle;Max_cycle;Signal;HPM_P1;HPM_P2
2023/11/10 00:00:20;;;;;;;1.40;0.70;;;8.00;99.90;;;;;;5034004;28;20198;-64
2023/11/10 00:02:47;;;;;;;1.33;0.70;;;8.00;99.90;;;;;;5033100;28;20695;-64
2023/11/10 00:05:14;;;;;;;0.70;0.60;;;8.00;99.90;;;;;;5033324;28;20232;-63
2023/11/10 00:07:41;;;;;;;1.58;0.80;;;8.10;99.90;;;;;;5033056;28;20202;-65
2023/11/10 00:10:09;;;;;;;1.20;0.82;;;8.10;99.90;;;;;;5033456;28;20212;-65
2023/11/10 00:12:37;;;;;;;1.60;0.70;;;8.10;99.90;;;;;;5033055;28;20210;-64
2023/11/10 00:15:08;;;;;;;0.85;0.60;;;8.10;99.90;;;;;;5033026;28;20304;-68
2023/11/10 00:17:35;;;;;;;0.90;0.60;;;8.00;99.90;;;;;;5033153;28;20202;-64
2023/11/10 00:20:02;;;;;;;0.60;0.50;;;8.00;99.90;;;;;;5033057;28;20199;-64
2023/11/10 00:22:31;;;;;;;0.90;0.60;;;8.00;99.90;;;;;;5033137;28;20356;-64
2023/11/10 00:24:58;;;;;;;1.10;0.80;;;8.00;99.90;;;;;;5032741;28;20312;-64
2023/11/10 00:27:24;;;;;;;1.05;0.70;;;8.00;99.90;;;;;;5033691;28;20209;-65
2023/11/10 00:29:53;;;;;;;0.70;0.60;;;8.00;99.90;;;;;;5037265;28;20198;-64
2023/11/10 00:32:20;;;;;;;0.98;0.80;;;8.00;99.90;;;;;;5037775;28;20206;-67
2023/11/10 00:34:47;;;;;;;1.00;0.65;;;8.00;99.90;;;;;;5037092;28;20226;-64
2023/11/10 00:37:14;;;;;;;0.80;0.70;;;8.10;99.90;;;;;;5037186;28;20272;-65
2023/11/10 00:39:40;;;;;;;1.90;0.90;;;8.10;99.90;;;;;;5037332;28;20191;-65
2023/11/10 00:42:07;;;;;;;0.90;0.80;;;8.00;99.90;;;;;;5037128;28;20205;-65
2023/11/10 00:44:34;;;;;;;1.10;0.88;;;8.00;99.90;;;;;;5037228;28;20223;-65
2023/11/10 00:47:02;;;;;;;1.70;0.93;;;8.10;99.90;;;;;;5037216;28;20230;-64
2023/11/10 00:49:30;;;;;;;0.80;0.75;;;8.10;99.90;;;;;;5037425;28;20211;-65
2023/11/10 00:51:56;;;;;;;0.90;0.60;;;8.10;99.90;;;;;;5037499;28;20242;-63
2023/11/10 00:54:23;;;;;;;2.75;1.10;;;8.10;99.90;;;;;;5036600;28;20793;-65
2023/11/10 00:56:50;;;;;;;1.50;0.65;;;8.00;99.90;;;;;;5036664;28;20222;-65
2023/11/10 00:59:17;;;;;;;2.88;0.80;;;8.10;99.90;;;;;;5036658;28;20203;-63
2023/11/10 01:01:44;;;;;;;1.27;0.98;;;8.10;99.90;;;;;;5036583;28;20203;-65
2023/11/10 01:04:12;;;;;;;2.65;1.23;;;8.00;99.90;;;;;;5036292;28;20222;-64
2023/11/10 01:06:39;;;;;;;1.40;0.90;;;8.00;99.90;;;;;;5036529;28;20199;-65
2023/11/10 01:09:06;;;;;;;1.42;0.80;;;7.90;99.90;;;;;;5036455;28;20293;-65
2023/11/10 01:11:33;;;;;;;1.10;1.00;;;7.90;99.90;;;;;;5036215;28;20692;-64
2023/11/10 01:14:00;;;;;;;0.98;0.85;;;7.90;99.90;;;;;;5036052;28;20226;-63
2023/11/10 01:16:28;;;;;;;3.13;1.40;;;8.00;99.90;;;;;;5036492;28;20210;-65
2023/11/10 01:18:55;;;;;;;0.93;0.80;;;8.00;99.90;;;;;;5036406;28;20230;-64
2023/11/10 01:21:23;;;;;;;1.10;0.90;;;7.90;99.90;;;;;;5035961;28;20668;-65
2023/11/10 01:23:52;;;;;;;0.93;0.70;;;7.90;99.90;;;;;;5036060;28;20208;-64
2023/11/10 01:26:19;;;;;;;1.23;0.90;;;7.80;99.90;;;;;;5036574;28;20210;-65
2023/11/10 01:28:46;;;;;;;0.90;0.75;;;7.80;99.90;;;;;;5035844;28;20198;-64
2023/11/10 01:31:14;;;;;;;1.00;0.70;;;7.70;99.90;;;;;;5036488;28;20198;-63
2023/11/10 01:33:40;;;;;;;0.95;0.85;;;7.70;99.90;;;;;;5035687;28;20686;-63
2023/11/10 01:36:08;;;;;;;2.65;0.90;;;7.70;99.90;;;;;;5036058;28;20199;-63
2023/11/10 01:38:36;;;;;;;2.28;1.25;;;7.70;99.90;;;;;;5035609;28;20214;-63
2023/11/10 01:41:03;;;;;;;1.20;1.08;;;7.70;99.90;;;;;;5035591;28;20207;-63
2023/11/10 01:43:31;;;;;;;2.35;0.98;;;7.60;99.90;;;;;;5036246;28;20206;-63
2023/11/10 01:45:58;;;;;;;1.23;1.13;;;7.60;99.90;;;;;;5036374;28;20268;-63
2023/11/10 01:48:26;;;;;;;1.27;1.15;;;7.50;99.90;;;;;;5035862;28;20256;-63
2023/11/10 01:50:54;;;;;;;6.05;1.08;;;7.50;99.90;;;;;;5036333;28;20205;-63
2023/11/10 01:53:22;;;;;;;3.28;1.33;;;7.50;99.90;;;;;;5036005;28;20198;-64
2023/11/10 01:55:51;;;;;;;2.63;1.05;;;7.50;99.90;;;;;;5035981;28;20225;-64
2023/11/10 01:58:18;;;;;;;1.52;1.10;;;7.50;99.90;;;;;;5035623;28;20223;-63
2023/11/10 02:00:45;;;;;;;1.50;1.30;;;7.50;99.90;;;;;;5035348;28;20214;-63
2023/11/10 02:03:13;;;;;;;2.65;1.48;;;7.50;99.90;;;;;;5035564;28;20199;-63
2023/11/10 02:05:39;;;;;;;2.53;1.13;;;7.40;99.90;;;;;;5035420;28;20218;-63
2023/11/10 02:08:06;;;;;;;4.38;1.40;;;7.40;99.90;;;;;;5035443;28;20210;-64
2023/11/10 02:10:35;;;;;;;1.15;1.05;;;7.40;99.90;;;;;;5035302;28;20206;-64
2023/11/10 02:13:06;;;;;;;2.03;1.30;;;7.40;99.90;;;;;;5035853;28;20199;-63
2023/11/10 02:15:33;;;;;;;3.55;1.20;;;7.40;99.90;;;;;;5035320;28;20775;-63
2023/11/10 02:18:00;;;;;;;3.05;1.27;;;7.40;99.90;;;;;;5035413;28;20276;-63
2023/11/10 02:20:27;;;;;;;1.40;1.00;;;7.40;99.90;;;;;;5035500;28;20208;-65
2023/11/10 02:22:54;;;;;;;2.35;1.23;;;7.30;99.90;;;;;;5034801;28;20212;-63
2023/11/10 02:25:22;;;;;;;3.28;2.00;;;7.30;99.90;;;;;;5035163;28;20227;-62
2023/11/10 02:27:50;;;;;;;2.58;1.15;;;7.30;99.90;;;;;;5035300;28;20202;-62
2023/11/10 02:30:17;;;;;;;2.20;1.40;;;7.20;99.90;;;;;;5035324;28;20230;-64
2023/11/10 02:32:46;;;;;;;2.10;1.15;;;7.20;99.90;;;;;;5035237;28;20206;-62
2023/11/10 02:35:14;;;;;;;1.20;1.00;;;7.10;99.90;;;;;;5035484;28;20218;-65
2023/11/10 02:37:41;;;;;;;4.38;1.25;;;7.10;99.90;;;;;;5035431;28;20229;-63
2023/11/10 02:40:09;;;;;;;2.33;1.30;;;7.10;99.90;;;;;;5035069;28;20214;-63
2023/11/10 02:42:37;;;;;;;2.05;1.05;;;7.10;99.90;;;;;;5035191;28;20204;-64
2023/11/10 02:45:05;;;;;;;2.17;1.38;;;7.10;99.90;;;;;;5034870;28;20226;-63
2023/11/10 02:47:32;;;;;;;1.88;1.10;;;7.10;99.90;;;;;;5034789;28;20619;-63
2023/11/10 02:49:59;;;;;;;1.42;0.70;;;7.10;99.90;;;;;;5034856;28;20214;-62
2023/11/10 02:52:26;;;;;;;5.97;1.75;;;7.10;99.90;;;;;;5034218;28;20198;-62
2023/11/10 02:54:53;;;;;;;2.85;1.27;;;7.10;99.90;;;;;;5035013;28;20256;-64
2023/11/10 02:57:20;;;;;;;2.97;1.30;;;7.10;99.90;;;;;;5034850;28;20209;-65
2023/11/10 02:59:49;;;;;;;2.30;0.90;;;7.10;99.90;;;;;;5035104;28;20204;-63
2023/11/10 03:02:15;;;;;;;2.00;1.30;;;7.10;99.90;;;;;;5034876;28;20656;-63
2023/11/10 03:04:42;;;;;;;2.05;1.15;;;7.10;99.90;;;;;;5034285;28;20317;-64
2023/11/10 03:07:10;;;;;;;2.92;1.08;;;7.10;99.90;;;;;;5035042;28;20687;-65
2023/11/10 03:09:39;;;;;;;1.35;1.23;;;7.10;99.90;;;;;;5034518;28;20293;-63
2023/11/10 03:12:08;;;;;;;2.08;1.13;;;7.00;99.90;;;;;;5034418;28;20256;-64
2023/11/10 03:14:35;;;;;;;3.55;1.92;;;7.00;99.90;;;;;;5059607;22;20230;-61
2023/11/10 03:17:03;;;;;;;1.80;1.05;;;7.00;99.90;;;;;;5041678;28;20266;-60
2023/11/10 03:19:30;;;;;;;2.90;1.55;;;6.90;99.90;;;;;;5043506;28;20224;-61
2023/11/10 03:21:57;;;;;;;2.25;1.35;;;6.90;99.90;;;;;;5046663;28;20212;-61
2023/11/10 03:24:23;;;;;;;3.15;1.40;;;6.90;99.90;;;;;;5043854;28;20400;-60
2023/11/10 03:26:50;;;;;;;3.65;1.38;;;6.90;99.90;;;;;;5040786;28;20684;-61
2023/11/10 03:29:17;;;;;;;2.90;1.45;;;6.80;99.90;;;;;;5038539;28;20206;-61
2023/11/10 03:31:44;;;;;;;1.33;1.00;;;6.80;99.90;;;;;;5044342;28;20198;-60
2023/11/10 03:34:12;;;;;;;2.35;1.20;;;6.80;99.90;;;;;;5039104;28;20210;-61
2023/11/10 03:36:39;;;;;;;5.30;1.10;;;6.80;99.90;;;;;;5041952;28;20202;-60
2023/11/10 03:39:06;;;;;;;1.05;0.90;;;6.80;99.90;;;;;;5046903;28;20222;-60
2023/11/10 03:41:33;;;;;;;5.55;1.15;;;6.80;99.90;;;;;;5037656;28;20203;-60
2023/11/10 03:43:59;;;;;;;2.80;1.17;;;6.70;99.90;;;;;;5041894;28;20213;-61
2023/11/10 03:46:26;;;;;;;2.97;0.82;;;6.80;99.90;;;;;;5039020;28;20202;-60
2023/11/10 03:48:53;;;;;;;1.30;1.20;;;6.70;99.90;;;;;;5042520;28;20202;-59
2023/11/10 03:51:21;;;;;;;1.73;1.10;;;6.70;99.90;;;;;;5043371;28;20202;-60
2023/11/10 03:53:48;;;;;;;3.75;0.93;;;6.70;99.90;;;;;;5039554;28;20550;-60
2023/11/10 03:56:15;;;;;;;3.00;1.13;;;6.70;99.90;;;;;;5035650;28;20248;-60
2023/11/10 03:58:42;;;;;;;3.22;1.23;;;6.70;99.90;;;;;;5034127;28;20218;-61
2023/11/10 04:01:11;;;;;;;4.85;1.58;;;6.60;99.90;;;;;;5033707;28;20627;-60
2023/11/10 04:03:38;;;;;;;3.10;1.13;;;6.60;99.90;;;;;;5033040;28;20700;-60
2023/11/10 04:06:05;;;;;;;1.15;0.90;;;6.60;99.90;;;;;;5033228;28;20268;-61
2023/11/10 04:08:34;;;;;;;1.30;0.90;;;6.60;99.90;;;;;;5033525;28;20200;-61
2023/11/10 04:12:31;;;;;;;8.65;1.55;;;6.60;99.90;;;;;;5092627;28;20553;-60
2023/11/10 04:14:58;;;;;;;2.05;1.00;;;6.60;99.90;;;;;;5091767;28;20231;-61
2023/11/10 04:17:25;;;;;;;1.60;1.05;;;6.50;99.90;;;;;;5094642;28;20200;-62
2023/11/10 04:19:52;;;;;;;2.55;1.13;;;6.50;99.90;;;;;;5092033;28;20204;-62
2023/11/10 04:22:18;;;;;;;2.03;1.02;;;6.40;99.90;;;;;;5092002;28;20204;-61
2023/11/10 04:24:45;;;;;;;1.65;1.00;;;6.40;99.90;;;;;;5092782;28;20224;-61
2023/11/10 04:27:13;;;;;;;5.63;1.45;;;6.40;99.90;;;;;;5091861;28;20204;-61
2023/11/10 04:29:41;;;;;;;4.57;1.35;;;6.50;99.90;;;;;;5091067;28;20584;-60
2023/11/10 04:32:07;;;;;;;5.30;0.90;;;6.50;99.90;;;;;;5091068;28;20227;-61
2023/11/10 04:34:34;;;;;;;1.35;1.25;;;6.60;99.90;;;;;;5090811;28;20256;-60
2023/11/10 04:37:02;;;;;;;1.45;1.00;;;6.70;99.90;;;;;;5090871;28;20203;-61
2023/11/10 04:39:29;;;;;;;2.65;1.00;;;6.70;99.90;;;;;;5097832;28;20204;-60
2023/11/10 04:41:54;;;;;;;1.50;0.95;;;6.80;99.90;;;;;;5091596;28;20200;-62
2023/11/10 04:44:23;;;;;;;3.70;1.23;;;6.80;99.90;;;;;;5091082;28;20770;-60
2023/11/10 04:46:51;;;;;;;2.92;1.52;;;6.90;99.90;;;;;;5090925;28;20239;-61
2023/11/10 04:49:18;;;;;;;3.50;1.45;;;6.80;99.90;;;;;;5090538;28;20203;-61
2023/11/10 04:51:44;;;;;;;4.32;1.67;;;6.80;99.90;;;;;;5089805;28;20228;-61
2023/11/10 04:54:12;;;;;;;2.53;1.15;;;6.80;99.90;;;;;;5090002;28;20295;-59
2023/11/10 04:56:44;;;;;;;3.42;1.13;;;6.90;99.90;;;;;;5089967;28;20196;-61
2023/11/10 04:59:11;;;;;;;3.90;1.45;;;6.90;99.90;;;;;;5089953;28;20195;-61
2023/11/10 05:01:39;;;;;;;3.08;1.05;;;6.90;99.90;;;;;;5089802;28;20300;-61
2023/11/10 05:04:08;;;;;;;1.50;0.93;;;7.00;99.90;;;;;;5089777;28;20204;-61
2023/11/10 05:06:35;;;;;;;2.72;1.17;;;7.00;99.90;;;;;;5089554;28;20287;-60
2023/11/10 05:09:05;;;;;;;3.10;1.20;;;7.00;99.90;;;;;;5089818;28;20211;-61
2023/11/10 05:11:32;;;;;;;2.20;1.10;;;7.00;99.90;;;;;;5089633;28;20275;-61
2023/11/10 05:13:58;;;;;;;2.67;1.20;;;7.00;99.90;;;;;;5089865;28;20204;-62
2023/11/10 05:16:25;;;;;;;1.90;1.10;;;7.00;99.90;;;;;;5089957;28;20205;-60
2023/11/10 05:18:52;;;;;;;5.05;1.20;;;7.00;99.90;;;;;;5090088;28;20204;-61
2023/11/10 05:21:20;;;;;;;1.63;1.00;;;7.00;99.90;;;;;;5089818;28;20200;-60
2023/11/10 05:23:47;;;;;;;2.22;1.05;;;6.90;99.90;;;;;;5076581;28;20205;-61
2023/11/10 05:26:14;;;;;;;1.80;0.88;;;6.90;99.90;;;;;;5075718;28;20715;-61
2023/11/10 05:28:41;;;;;;;6.07;1.15;;;6.80;99.90;;;;;;5076340;28;20220;-60
2023/11/10 05:31:08;;;;;;;3.38;0.95;;;6.70;99.90;;;;;;5076055;28;20307;-60
2023/11/10 05:33:36;;;;;;;4.75;1.27;;;6.70;99.90;;;;;;5075642;28;20647;-59
2023/11/10 05:36:03;;;;;;;4.25;1.45;;;6.80;99.90;;;;;;5075738;28;20229;-60
2023/11/10 05:38:32;;;;;;;2.63;1.00;;;6.80;99.90;;;;;;5075730;28;20677;-61
2023/11/10 05:40:58;;;;;;;3.20;1.42;;;6.80;99.90;;;;;;5075717;28;20216;-60
2023/11/10 05:43:26;;;;;;;4.28;1.02;;;6.80;99.90;;;;;;5075853;28;20208;-61
2023/11/10 05:45:52;;;;;;;1.83;0.98;;;6.90;99.90;;;;;;5075092;28;20744;-59
2023/11/10 05:48:19;;;;;;;1.00;1.00;;;6.90;99.90;;;;;;5075797;28;20208;-61
2023/11/10 05:50:47;;;;;;;1.27;1.05;;;6.90;99.90;;;;;;5075211;28;20663;-61
2023/11/10 05:53:14;;;;;;;1.98;0.95;;;6.90;99.90;;;;;;5075697;28;20200;-60
2023/11/10 05:55:43;;;;;;;5.45;1.17;;;6.80;99.90;;;;;;5075414;28;20221;-60
2023/11/10 05:58:10;;;;;;;2.85;1.15;;;6.80;99.90;;;;;;5075870;28;20233;-61
2023/11/10 06:00:38;;;;;;;3.03;1.25;;;6.80;99.90;;;;;;5075200;28;20204;-60
2023/11/10 06:03:05;;;;;;;2.28;1.90;;;6.80;99.90;;;;;;5075383;28;20220;-60
2023/11/10 06:05:32;;;;;;;1.30;0.77;;;6.80;99.90;;;;;;5075176;28;20312;-61
2023/11/10 06:07:58;;;;;;;2.15;1.45;;;6.80;99.90;;;;;;5074905;28;20201;-60
2023/11/10 06:10:25;;;;;;;2.17;1.17;;;6.70;99.90;;;;;;5074285;28;20307;-60
2023/11/10 06:12:54;;;;;;;4.63;1.42;;;6.70;99.90;;;;;;5074601;28;20211;-60
2023/11/10 06:15:20;;;;;;;1.30;1.00;;;6.60;99.90;;;;;;5075172;28;20710;-59
2023/11/10 06:17:47;;;;;;;2.38;1.30;;;6.70;99.90;;;;;;5075199;28;20678;-60
2023/11/10 06:20:14;;;;;;;9.65;1.50;;;6.70;99.90;;;;;;5075192;28;20252;-60
2023/11/10 06:22:42;;;;;;;4.78;1.27;;;6.80;99.90;;;;;;5075436;28;20568;-61
2023/11/10 06:25:09;;;;;;;2.20;1.13;;;6.80;99.90;;;;;;5075270;28;20223;-61
2023/11/10 06:27:36;;;;;;;3.05;1.30;;;6.90;99.90;;;;;;5074989;28;20201;-60
2023/11/10 06:30:05;;;;;;;4.38;1.27;;;7.00;99.90;;;;;;5074739;28;20288;-59
2023/11/10 06:32:32;;;;;;;1.30;1.17;;;7.00;99.90;;;;;;5075199;28;20223;-60
2023/11/10 06:34:59;;;;;;;1.80;1.17;;;7.00;99.90;;;;;;5085036;28;20312;-59
2023/11/10 06:37:26;;;;;;;3.00;1.20;;;7.00;99.90;;;;;;5075768;28;20269;-59
2023/11/10 06:39:53;;;;;;;3.20;1.02;;;7.00;99.90;;;;;;5076492;28;20580;-61
2023/11/10 06:42:21;;;;;;;3.85;1.60;;;7.00;99.90;;;;;;5075572;28;20284;-60
2023/11/10 06:44:49;;;;;;;2.63;1.90;;;7.00;99.90;;;;;;5075362;28;20252;-59
2023/11/10 06:47:17;;;;;;;1.35;1.02;;;7.00;99.90;;;;;;5075253;28;20201;-60
2023/11/10 06:49:44;;;;;;;3.03;1.05;;;7.10;99.90;;;;;;5075293;28;20201;-60
2023/11/10 06:52:11;;;;;;;1.75;1.00;;;7.10;99.90;;;;;;5074839;28;20224;-61
2023/11/10 06:54:38;;;;;;;2.05;1.20;;;7.20;99.90;;;;;;5074736;28;20221;-60
2023/11/10 06:57:06;;;;;;;2.92;1.38;;;7.20;99.90;;;;;;5075754;28;20232;-62
2023/11/10 06:59:32;;;;;;;1.85;1.40;;;7.20;99.90;;;;;;5075175;28;20315;-60
2023/11/10 07:01:59;;;;;;;2.95;1.35;;;7.10;99.90;;;;;;5075423;28;20205;-60
2023/11/10 07:04:27;;;;;;;2.05;1.17;;;7.20;99.90;;;;;;5076442;28;20316;-60
2023/11/10 07:06:54;;;;;;;2.45;1.48;;;7.20;99.90;;;;;;5075533;28;20196;-60
2023/11/10 07:09:21;;;;;;;4.90;1.20;;;7.20;99.90;;;;;;5076484;28;20201;-61
2023/11/10 07:11:48;;;;;;;2.30;1.65;;;7.30;99.90;;;;;;5075411;28;20768;-60
2023/11/10 07:14:15;;;;;;;1.75;1.35;;;7.30;99.90;;;;;;5075503;28;20236;-59
2023/11/10 07:16:42;;;;;;;2.08;1.20;;;7.40;99.90;;;;;;5074835;28;20205;-60
2023/11/10 07:19:08;;;;;;;1.80;1.25;;;7.50;99.90;;;;;;5076461;28;20306;-60
2023/11/10 07:21:38;;;;;;;0.90;0.80;;;7.80;99.90;;;;;;5074871;28;20565;-61
2023/11/10 07:24:05;;;;;;;7.53;1.30;;;8.10;99.90;;;;;;5074178;28;20204;-61
2023/11/10 07:26:32;;;;;;;1.48;1.20;;;8.20;99.90;;;;;;5074707;28;20204;-61
2023/11/10 07:29:02;;;;;;;2.05;1.67;;;8.30;99.90;;;;;;5075873;28;20205;-59
2023/11/10 07:31:29;;;;;;;4.20;1.95;;;8.30;99.90;;;;;;5075315;28;20244;-59
2023/11/10 07:33:56;;;;;;;1.15;1.00;;;8.40;99.90;;;;;;5077702;28;20207;-60
2023/11/10 07:36:22;;;;;;;1.38;1.00;;;8.30;99.90;;;;;;5076795;28;20767;-61
2023/11/10 07:38:51;;;;;;;3.85;1.05;;;8.30;99.90;;;;;;5077373;28;20201;-61
2023/11/10 07:41:17;;;;;;;2.72;1.40;;;8.40;99.90;;;;;;5076368;28;20213;-60
2023/11/10 07:43:44;;;;;;;2.55;1.20;;;8.40;99.90;;;;;;5075448;28;20204;-60
2023/11/10 07:46:11;;;;;;;0.90;0.70;;;8.40;99.90;;;;;;5076310;28;20224;-60
2023/11/10 07:48:38;;;;;;;3.25;1.70;;;8.30;99.90;;;;;;5076325;28;20280;-59
2023/11/10 07:51:05;;;;;;;2.67;1.30;;;8.40;99.90;;;;;;5076654;28;20201;-61
2023/11/10 07:53:32;;;;;;;4.03;1.42;;;8.30;99.90;;;;;;5077848;28;20227;-62
2023/11/10 07:56:01;;;;;;;1.83;1.35;;;8.40;99.90;;;;;;5076447;28;20217;-60
2023/11/10 07:58:27;;;;;;;2.17;1.10;;;8.30;99.90;;;;;;5076851;28;20215;-61
2023/11/10 08:00:54;;;;;;;1.70;1.40;;;8.30;99.90;;;;;;5076193;28;20287;-60
2023/11/10 08:03:21;;;;;;;3.70;1.10;;;8.30;99.90;;;;;;5079481;28;20213;-62
2023/11/10 08:05:49;;;;;;;2.95;1.30;;;8.30;99.90;;;;;;5081490;28;20216;-61
2023/11/10 08:08:16;;;;;;;2.65;1.40;;;8.30;99.90;;;;;;5078562;28;20732;-60
2023/11/10 08:10:43;;;;;;;3.80;1.73;;;8.30;99.90;;;;;;5076925;28;20215;-61
2023/11/10 08:13:11;;;;;;;1.60;1.10;;;8.30;99.90;;;;;;5077426;28;20220;-60
2023/11/10 08:15:38;;;;;;;2.25;1.30;;;8.30;99.90;;;;;;5084097;28;20575;-60
2023/11/10 08:18:05;;;;;;;2.10;1.73;;;8.30;99.90;;;;;;5083726;28;20204;-60
2023/11/10 08:20:32;;;;;;;5.22;1.30;;;8.20;99.90;;;;;;5084303;28;20205;-60
2023/11/10 08:22:58;;;;;;;2.00;1.05;;;8.30;99.90;;;;;;5088701;28;20643;-60
2023/11/10 08:25:25;;;;;;;2.28;1.40;;;8.30;99.90;;;;;;5085460;28;20702;-59
2023/11/10 08:27:52;;;;;;;1.30;0.95;;;8.30;99.90;;;;;;5081675;28;20203;-62
2023/11/10 08:30:21;;;;;;;4.07;1.58;;;8.40;99.90;;;;;;5080895;28;20201;-60
2023/11/10 08:32:48;;;;;;;2.10;0.95;;;8.40;99.90;;;;;;5084693;28;20216;-59
2023/11/10 08:35:16;;;;;;;4.50;1.20;;;8.50;99.90;;;;;;5077887;28;20248;-60
2023/11/10 08:37:43;;;;;;;4.07;1.10;;;8.50;99.90;;;;;;5086761;28;20223;-62
2023/11/10 08:40:11;;;;;;;7.70;1.88;;;8.50;99.90;;;;;;5087338;28;20212;-59
2023/11/10 08:42:41;;;;;;;1.10;1.00;;;8.50;99.90;;;;;;5087465;28;20284;-63
2023/11/10 08:45:08;;;;;;;4.95;1.17;;;8.50;99.90;;;;;;5087978;28;20278;-61
2023/11/10 08:47:37;;;;;;;2.42;1.40;;;8.60;99.90;;;;;;5087614;28;20269;-60
2023/11/10 08:50:05;;;;;;;2.17;1.30;;;8.50;99.90;;;;;;5088148;28;20201;-60
2023/11/10 08:52:32;;;;;;;1.50;0.90;;;8.50;99.90;;;;;;5084694;28;20217;-62
2023/11/10 08:54:59;;;;;;;2.20;1.00;;;8.50;99.90;;;;;;5086233;28;20221;-61
2023/11/10 08:57:26;;;;;;;2.03;1.08;;;8.50;99.90;;;;;;5087377;28;20215;-61
2023/11/10 08:59:53;;;;;;;2.28;1.13;;;8.60;99.90;;;;;;5091290;28;20204;-59
2023/11/10 09:02:20;;;;;;;3.15;1.50;;;8.60;99.90;;;;;;5090731;28;20204;-60
2023/11/10 09:04:48;;;;;;;1.30;0.90;;;8.70;99.90;;;;;;5088604;28;20260;-60
2023/11/10 09:07:16;;;;;;;0.95;0.85;;;8.80;99.90;;;;;;5082395;28;20208;-61
2023/11/10 09:09:43;;;;;;;1.75;1.00;;;8.90;99.90;;;;;;5082927;28;20197;-61
2023/11/10 09:12:10;;;;;;;1.77;1.20;;;9.00;99.90;;;;;;5077949;28;20217;-61
2023/11/10 09:14:37;;;;;;;2.85;1.30;;;9.10;99.90;;;;;;5077231;28;20282;-62
2023/11/10 09:17:04;;;;;;;1.70;1.00;;;9.10;99.90;;;;;;5077963;28;20200;-63
2023/11/10 09:19:30;;;;;;;2.50;1.13;;;9.20;99.90;;;;;;5078175;28;20205;-61
2023/11/10 09:21:58;;;;;;;0.97;0.87;;;9.20;99.90;;;;;;5078209;28;20201;-61
2023/11/10 09:24:25;;;;;;;0.97;0.80;;;9.20;99.90;;;;;;5079128;28;20478;-61
2023/11/10 09:26:52;;;;;;;3.80;0.93;;;9.30;99.90;;;;;;5079067;28;20447;-62
2023/11/10 09:29:19;;;;;;;3.05;1.30;;;9.30;99.90;;;;;;5078991;28;20450;-62
2023/11/10 09:31:46;;;;;;;1.13;1.03;;;9.40;99.90;;;;;;5077830;28;20204;-62
2023/11/10 09:34:13;;;;;;;1.50;0.80;;;9.40;99.90;;;;;;5078208;28;20446;-61
2023/11/10 09:36:40;;;;;;;1.87;1.00;;;9.50;99.90;;;;;;5078319;28;20530;-61
2023/11/10 09:39:10;;;;;;;1.30;0.70;;;9.50;99.90;;;;;;5077889;28;20447;-62
2023/11/10 09:41:38;;;;;;;2.27;1.30;;;9.60;99.90;;;;;;5077974;28;20201;-61
2023/11/10 09:44:07;;;;;;;2.27;1.20;;;9.60;99.90;;;;;;5078134;28;20435;-61
2023/11/10 09:46:34;;;;;;;1.60;0.90;;;9.60;99.90;;;;;;5077840;28;20971;-61
2023/11/10 09:49:04;;;;;;;2.53;1.00;;;9.60;99.90;;;;;;5077008;28;20510;-62
2023/11/10 09:51:33;;;;;;;2.80;1.67;;;9.60;99.90;;;;;;5076920;28;20200;-63
2023/11/10 09:54:02;;;;;;;2.73;1.33;;;9.70;99.90;;;;;;5076622;28;20486;-61
2023/11/10 09:56:31;;;;;;;1.65;1.13;;;9.70;99.90;;;;;;5077026;28;20439;-61
2023/11/10 09:59:00;;;;;;;1.70;1.13;;;9.70;99.90;;;;;;5076014;28;20205;-61
2023/11/10 10:01:27;;;;;;;2.10;1.27;;;9.70;99.90;;;;;;5076688;28;20792;-61
2023/11/10 10:03:53;;;;;;;1.00;0.90;;;9.80;99.90;;;;;;5076849;28;20435;-62
2023/11/10 10:06:21;;;;;;;1.87;1.30;;;9.80;99.90;;;;;;5077108;28;20299;-61
2023/11/10 10:08:48;;;;;;;2.93;1.53;;;9.90;99.90;;;;;;5076724;28;20447;-60
2023/11/10 10:11:15;;;;;;;5.13;1.50;;;9.90;99.90;;;;;;5076694;28;20465;-62
2023/11/10 10:13:43;;;;;;;2.20;1.27;;;10.00;99.90;;;;;;5076729;28;20842;-61
2023/11/10 10:16:12;;;;;;;2.30;1.40;;;10.00;99.90;;;;;;5077098;28;20522;-61
2023/11/10 10:18:39;;;;;;;1.50;1.00;;;10.00;99.90;;;;;;5077433;28;20205;-61
2023/11/10 10:21:06;;;;;;;3.07;1.40;;;10.00;99.90;;;;;;5076765;28;20534;-62
2023/11/10 10:23:33;;;;;;;2.03;1.40;;;10.10;99.90;;;;;;5077444;28;20484;-62
2023/11/10 10:26:00;;;;;;;2.87;1.93;;;10.10;99.90;;;;;;5084917;28;20530;-61
2023/11/10 10:28:27;;;;;;;6.70;2.10;;;10.20;99.90;;;;;;5080282;28;20493;-61
2023/11/10 10:30:55;;;;;;;1.60;1.40;;;10.20;99.90;;;;;;5077315;28;20462;-60
2023/11/10 10:33:22;;;;;;;2.30;1.20;;;10.20;99.90;;;;;;5077948;28;20808;-61
2023/11/10 10:35:49;;;;;;;5.10;1.20;;;10.20;99.90;;;;;;5077264;28;20499;-59
2023/11/10 10:38:20;;;;;;;3.97;1.87;;;10.20;99.90;;;;;;5078599;28;20451;-61
2023/11/10 10:40:48;;;;;;;1.60;1.17;;;10.30;99.90;;;;;;5079774;28;20431;-62
2023/11/10 10:43:19;;;;;;;3.93;1.73;;;10.30;99.90;;;;;;5079217;28;20952;-61
2023/11/10 10:45:45;;;;;;;2.57;1.30;;;10.40;99.90;;;;;;5082353;28;20481;-61
2023/11/10 10:48:16;;;;;;;2.47;1.40;;;10.40;99.90;;;;;;5083588;28;20458;-61
2023/11/10 10:50:44;;;;;;;2.13;1.50;;;10.50;99.90;;;;;;5085182;28;20435;-61
2023/11/10 10:53:14;;;;;;;1.40;1.13;;;10.60;99.90;;;;;;5086707;28;20482;-61
2023/11/10 10:55:41;;;;;;;3.83;1.50;;;10.70;99.90;;;;;;5084397;28;20459;-61
2023/11/10 10:58:09;;;;;;;2.40;1.10;;;10.70;99.90;;;;;;5083448;28;20855;-61
2023/11/10 11:00:36;;;;;;;2.77;1.40;;;10.80;99.90;;;;;;5080421;28;20451;-62
2023/11/10 11:03:21;;;;;;;2.97;1.67;;;11.00;99.90;;;;;;5081800;28;20435;-61
2023/11/10 11:05:59;;;;;;;2.07;1.50;;;11.00;99.90;;;;;;5083509;28;20517;-61
2023/11/10 11:08:42;;;;;;;1.70;1.10;;;10.90;99.90;;;;;;5082386;28;20973;-61
2023/11/10 11:11:30;;;;;;;2.20;1.20;;;10.80;99.90;;;;;;5081287;28;20454;-63
2023/11/10 11:14:20;;;;;;;1.70;1.03;;;10.70;99.90;;;;;;5083074;28;20494;-61
2023/11/10 11:17:09;;;;;;;1.67;1.10;;;10.60;99.90;;;;;;5082184;28;20897;-62
2023/11/10 11:19:37;;;;;;;1.87;1.47;;;10.50;99.90;;;;;;5080400;28;20423;-61
2023/11/10 11:22:08;;;;;;;2.47;0.87;;;10.50;99.90;;;;;;5084399;28;20451;-62
2023/11/10 11:24:35;;;;;;;2.60;1.50;;;10.50;99.90;;;;;;5085466;28;20524;-61
2023/11/10 11:27:06;;;;;;;2.80;1.23;;;10.50;99.90;;;;;;5082717;28;20505;-62
2023/11/10 11:29:37;;;;;;;3.10;1.47;;;10.60;99.90;;;;;;5080016;28;20444;-61
2023/11/10 11:32:05;;;;;;;1.77;1.50;;;10.70;99.90;;;;;;5079511;28;20477;-62
2023/11/10 11:34:33;;;;;;;5.23;1.80;;;10.80;99.90;;;;;;5079523;28;20491;-61
2023/11/10 11:37:05;;;;;;;4.27;1.90;;;10.80;99.90;;;;;;5079375;28;20867;-60
2023/11/10 11:39:34;;;;;;;2.90;1.60;;;10.90;99.90;;;;;;5078891;28;20419;-61
2023/11/10 11:42:05;;;;;;;2.30;1.57;;;10.90;99.90;;;;;;5079840;28;20448;-60
2023/11/10 11:44:34;;;;;;;2.60;1.20;;;10.90;99.90;;;;;;5079242;28;20459;-61
2023/11/10 11:47:07;;;;;;;2.33;1.43;;;11.00;99.90;;;;;;5082955;28;20467;-62
2023/11/10 11:49:33;;;;;;;1.97;1.37;;;11.10;99.90;;;;;;5081332;28;20415;-60
2023/11/10 11:52:03;;;;;;;5.87;1.47;;;11.10;99.90;;;;;;5082163;28;20443;-62
2023/11/10 11:54:31;;;;;;;2.77;1.73;;;11.10;99.90;;;;;;5080555;28;20483;-61
2023/11/10 11:56:59;;;;;;;4.60;1.60;;;11.10;99.90;;;;;;5079774;28;20450;-63
2023/11/10 11:59:26;;;;;;;2.37;1.50;;;11.00;99.90;;;;;;5080434;28;20492;-63
2023/11/10 12:01:53;;;;;;;1.93;1.47;;;11.00;99.90;;;;;;5080358;28;20443;-61
2023/11/10 12:04:21;;;;;;;2.60;2.00;;;11.00;99.90;;;;;;5081828;28;20463;-60
2023/11/10 12:06:48;;;;;;;2.60;1.83;;;11.10;99.90;;;;;;5082198;28;20797;-61
2023/11/10 12:09:15;;;;;;;2.13;1.83;;;11.10;99.90;;;;;;5081261;28;20455;-61
2023/11/10 12:11:44;;;;;;;2.70;2.00;;;11.10;99.90;;;;;;5079315;28;20458;-61
2023/11/10 12:14:12;;;;;;;4.50;1.67;;;11.10;99.90;;;;;;5076785;28;20514;-62
2023/11/10 12:16:41;;;;;;;2.47;2.27;;;11.10;99.90;;;;;;5076778;28;20479;-60
2023/11/10 12:19:10;;;;;;;4.30;1.73;;;11.20;99.50;;;;;;5074991;28;20447;-61
2023/11/10 12:21:38;;;;;;;3.43;1.50;;;11.20;99.30;;;;;;5075734;28;20453;-61
2023/11/10 12:24:06;;;;;;;2.93;1.40;;;11.30;99.30;;;;;;5075288;28;20446;-61
2023/11/10 12:26:36;;;;;;;3.10;2.03;;;11.40;98.70;;;;;;5076019;28;20451;-61
2023/11/10 12:29:05;;;;;;;1.37;1.20;;;11.40;98.30;;;;;;5074160;28;20534;-62
2023/11/10 12:31:32;;;;;;;3.63;1.77;;;11.50;98.10;;;;;;5078191;28;20538;-62
2023/11/10 12:34:00;;;;;;;1.70;1.20;;;11.40;97.80;;;;;;5080067;28;20478;-62
2023/11/10 12:36:31;;;;;;;2.13;1.00;;;11.50;97.60;;;;;;5078442;28;20453;-61
2023/11/10 12:38:58;;;;;;;1.33;1.20;;;11.40;97.20;;;;;;5078375;28;20920;-61
2023/11/10 12:41:25;;;;;;;3.23;1.00;;;11.40;97.10;;;;;;5078203;28;20443;-61
2023/11/10 12:43:54;;;;;;;2.30;1.10;;;11.40;97.20;;;;;;5078720;28;20535;-61
2023/11/10 12:46:23;;;;;;;3.10;1.07;;;11.40;97.00;;;;;;5078212;28;20516;-61
2023/11/10 12:48:53;;;;;;;2.80;1.80;;;11.40;96.70;;;;;;5078442;28;20443;-60
2023/11/10 12:51:23;;;;;;;2.13;1.20;;;11.50;96.70;;;;;;5078361;28;20599;-61
2023/11/10 12:54:01;;;;;;;2.47;1.07;;;11.50;96.60;;;;;;5078926;28;20463;-61
2023/11/10 12:56:27;;;;;;;1.50;1.00;;;11.60;96.40;;;;;;5078494;28;20435;-64
2023/11/10 12:58:54;;;;;;;2.13;1.20;;;11.50;96.10;;;;;;5079635;28;20443;-61